Flight Track Log - Related Links

Times and Time Zones

All times are in EDT time to prevent confusion due to time zone crossing. See the LYC201 flight status page for this flight to view local times or setup timezone preferences in your user account.

Time Position Orientation Groundspeed Altitude Reporting Facility
EDT Latitude Longitude Course Direction KTS MPH feet Rate Location/Type
Wed 06:51:35 PM 21.1487 -86.6896 11° North  Level FlightAware Approximate
Wed 06:52:35 PM 21.2292 -86.6732 11° North  Level FlightAware Approximate
Wed 06:53:35 PM 21.3097 -86.6568 11° North  Level FlightAware Approximate
Wed 06:54:35 PM 21.3901 -86.6403 11° North  Level FlightAware Approximate
Wed 06:55:35 PM 21.4706 -86.6238 14° North  Level FlightAware Approximate
Wed 06:56:35 PM 21.5501 -86.6026 14° North  Level FlightAware Approximate
Wed 06:57:35 PM 21.6296 -86.5813 14° North  Level FlightAware Approximate
Wed 06:58:35 PM 21.7091 -86.5601 14° North  Level FlightAware Approximate
Wed 06:59:35 PM 21.7886 -86.5387 25° Northeast  Level FlightAware Approximate
Wed 07:00:35 PM 21.8629 -86.5017 25° Northeast  Level FlightAware Approximate
Wed 07:01:35 PM 21.9372 -86.4646 25° Northeast  Level FlightAware Approximate
Wed 07:02:35 PM 22.0116 -86.4274 25° Northeast  Level FlightAware Approximate
Wed 07:03:35 PM 22.0859 -86.3903 25° Northeast  Level FlightAware Approximate
Wed 07:04:35 PM 22.1602 -86.3531 25° Northeast  Level FlightAware Approximate
Wed 07:05:35 PM 22.2345 -86.3158 25° Northeast  Level FlightAware Approximate
Wed 07:06:35 PM 22.3088 -86.2785 25° Northeast  Level FlightAware Approximate
Wed 07:07:35 PM 22.3830 -86.2412 25° Northeast  Level FlightAware Approximate
Wed 07:08:35 PM 22.4573 -86.2038 25° Northeast  Level FlightAware Approximate
Wed 07:09:35 PM 22.5316 -86.1664 25° Northeast  Level FlightAware Approximate
Wed 07:10:35 PM 22.6058 -86.1289 25° Northeast  Level FlightAware Approximate
Wed 07:11:35 PM 22.6800 -86.0914 25° Northeast  Level FlightAware Approximate
Wed 07:12:35 PM 22.7543 -86.0539 25° Northeast  Level FlightAware Approximate
Wed 07:13:35 PM 22.8285 -86.0163 25° Northeast  Level FlightAware Approximate
Wed 07:14:35 PM 22.9027 -85.9787 25° Northeast  Level FlightAware Approximate
Wed 07:15:35 PM 22.9769 -85.9410 25° Northeast  Level FlightAware Approximate
Wed 07:16:35 PM 23.0511 -85.9034 25° Northeast  Level FlightAware Approximate
Wed 07:17:35 PM 23.1253 -85.8656 25° Northeast  Level FlightAware Approximate
Wed 07:18:35 PM 23.1995 -85.8278 25° Northeast  Level FlightAware Approximate
Wed 07:19:35 PM 23.2737 -85.7900 25° Northeast  Level FlightAware Approximate
Wed 07:20:35 PM 23.3479 -85.7521 25° Northeast  Level FlightAware Approximate
Wed 07:21:35 PM 23.4220 -85.7142 25° Northeast  Level FlightAware Approximate
Wed 07:22:35 PM 23.4962 -85.6763 25° Northeast  Level FlightAware Approximate
Wed 07:23:35 PM 23.5703 -85.6383 25° Northeast  Level FlightAware Approximate
Wed 07:24:35 PM 23.6444 -85.6003 25° Northeast  Level FlightAware Approximate
Wed 07:25:35 PM 23.7185 -85.5622 25° Northeast  Level FlightAware Approximate
Wed 07:26:35 PM 23.7927 -85.5240 25° Northeast  Level FlightAware Approximate
Wed 07:27:35 PM 23.8668 -85.4859 25° Northeast  Level FlightAware Approximate
Wed 07:28:35 PM 23.9408 -85.4477 30° Northeast  Level FlightAware Approximate
Wed 07:29:35 PM 24.0118 -85.4028 30° Northeast  Level FlightAware Approximate
Wed 07:30:35 PM 24.0827 -85.3579 30° Northeast  Level FlightAware Approximate
Wed 07:31:35 PM 24.1535 -85.3129 30° Northeast  Level FlightAware Approximate
Wed 07:32:35 PM 24.2244 -85.2679 30° Northeast  Level FlightAware Approximate
Wed 07:33:35 PM 24.2953 -85.2228 30° Northeast  Level FlightAware Approximate
Wed 07:34:35 PM 24.3661 -85.1777 30° Northeast  Level FlightAware Approximate
Wed 07:35:35 PM 24.4370 -85.1325 30° Northeast  Level FlightAware Approximate
Wed 07:36:35 PM 24.5078 -85.0873 30° Northeast  Level FlightAware Approximate
Wed 07:37:35 PM 24.5786 -85.0420 30° Northeast  Level FlightAware Approximate
Wed 07:38:35 PM 24.6494 -84.9967 30° Northeast  Level FlightAware Approximate
Wed 07:39:35 PM 24.7202 -84.9513 30° Northeast  Level FlightAware Approximate
Wed 07:40:35 PM 24.7909 -84.9059 30° Northeast  Level FlightAware Approximate
Wed 07:41:35 PM 24.8617 -84.8604 29° Northeast  Level FlightAware Approximate
Wed 07:42:35 PM 24.9335 -84.8171 29° Northeast  Level FlightAware Approximate
Wed 07:43:35 PM 25.0054 -84.7737 29° Northeast  Level FlightAware Approximate
Wed 07:44:35 PM 25.0773 -84.7303 29° Northeast  Level FlightAware Approximate
Wed 07:45:35 PM 25.1491 -84.6869 29° Northeast  Level FlightAware Approximate
Wed 07:46:35 PM 25.2209 -84.6433 29° Northeast  Level FlightAware Approximate
Wed 07:47:35 PM 25.2927 -84.5998 29° Northeast  Level FlightAware Approximate
Wed 07:48:35 PM 25.3645 -84.5562 29° Northeast  Level FlightAware Approximate
Wed 07:49:35 PM 25.4363 -84.5125 29° Northeast  Level FlightAware Approximate
Wed 07:50:35 PM 25.5081 -84.4688 29° Northeast  Level FlightAware Approximate
Wed 07:51:35 PM 25.5798 -84.4250 29° Northeast  Level FlightAware Approximate
Wed 07:52:35 PM 25.6516 -84.3811 29° Northeast  Level FlightAware Approximate
Wed 07:53:35 PM 25.7233 -84.3373 29° Northeast  Level FlightAware Approximate
Wed 07:54:35 PM 25.7950 -84.2933 29° Northeast  Level FlightAware Approximate
Wed 07:55:35 PM 25.8668 -84.2494 29° Northeast  Level FlightAware Approximate
Wed 07:56:35 PM 25.9384 -84.2053 29° Northeast  Level FlightAware Approximate
Wed 07:57:35 PM 26.0101 -84.1612 29° Northeast  Level FlightAware Approximate
Wed 07:58:35 PM 26.0818 -84.1171 29° Northeast  Level FlightAware Approximate
Wed 07:59:35 PM 26.1535 -84.0729 29° Northeast  Level FlightAware Approximate
Wed 08:00:35 PM 26.2251 -84.0286 29° Northeast  Level FlightAware Approximate
Wed 08:01:35 PM 26.2967 -83.9843 29° Northeast  Level FlightAware Approximate
Wed 08:02:35 PM 26.3683 -83.9399 29° Northeast  Level FlightAware Approximate
Wed 08:03:35 PM 26.4399 -83.8955 28° Northeast  Level FlightAware Approximate
Wed 08:04:35 PM 26.5124 -83.8528 28° Northeast  Level FlightAware Approximate
Wed 08:05:35 PM 26.5848 -83.8100 28° Northeast  Level FlightAware Approximate
Wed 08:06:35 PM 26.6572 -83.7672 28° Northeast  Level FlightAware Approximate
Wed 08:07:35 PM 26.7297 -83.7244 28° Northeast  Level FlightAware Approximate
Wed 08:08:35 PM 26.8020 -83.6814 28° Northeast  Level FlightAware Approximate
Wed 08:09:35 PM 26.8744 -83.6385 28° Northeast  Level FlightAware Approximate
Wed 08:10:35 PM 26.9468 -83.5955 28° Northeast  Level FlightAware Approximate
Wed 08:11:35 PM 27.0192 -83.5524 28° Northeast  Level FlightAware Approximate
Wed 08:12:35 PM 27.0915 -83.5092 28° Northeast  Level FlightAware Approximate
Wed 08:13:35 PM 27.1638 -83.4660 28° Northeast  Level FlightAware Approximate
Wed 08:14:35 PM 27.2362 -83.4228 28° Northeast  Level FlightAware Approximate
Wed 08:15:35 PM 27.3085 -83.3795 28° Northeast  Level FlightAware Approximate
Wed 08:16:35 PM 27.3808 -83.3361 28° Northeast  Level FlightAware Approximate
Wed 08:17:35 PM 27.4530 -83.2927 28° Northeast  Level FlightAware Approximate
Wed 08:18:35 PM 27.5253 -83.2492 28° Northeast  Level FlightAware Approximate
Wed 08:19:35 PM 27.5975 -83.2057 87° East  Level FlightAware Approximate
Wed 08:20:35 PM 27.6020 -83.1227 25° Northeast  Level FlightAware Approximate
Wed 08:21:35 PM 27.6761 -83.0833 25° Northeast  Level FlightAware Approximate
Wed 08:22:35 PM 27.7502 -83.0438 25° Northeast  Level FlightAware Approximate
Wed 08:23:35 PM 27.8242 -83.0043 25° Northeast  Level FlightAware Approximate
Wed 08:24:35 PM 27.8983 -82.9647 25° Northeast  Level FlightAware Approximate
Wed 08:25:35 PM 27.9724 -82.9251 25° Northeast  Level FlightAware Approximate
Wed 08:26:35 PM 28.0465 -82.8856 25° Northeast  Level FlightAware Approximate
Wed 08:27:35 PM 28.1206 -82.8461 25° Northeast  Level FlightAware Approximate
Wed 08:28:35 PM 28.1947 -82.8065 25° Northeast  Level FlightAware Approximate
Wed 08:29:35 PM 28.2688 -82.7669 25° Northeast  Level FlightAware Approximate
Wed 08:30:35 PM 28.3429 -82.7272 25° Northeast  Level FlightAware Approximate
Wed 08:31:35 PM 28.4170 -82.6874 25° Northeast  Level FlightAware Approximate
Wed 08:32:35 PM 28.4910 -82.6476 25° Northeast  Level FlightAware Approximate
Wed 08:33:35 PM 28.5651 -82.6078 25° Northeast  Level FlightAware Approximate
Wed 08:34:35 PM 28.6391 -82.5679 25° Northeast  Level FlightAware Approximate
Wed 08:35:35 PM 28.7132 -82.5279 25° Northeast  Level FlightAware Approximate
Wed 08:36:35 PM 28.7872 -82.4879 25° Northeast  Level FlightAware Approximate
Wed 08:37:35 PM 28.8612 -82.4478 25° Northeast  Level FlightAware Approximate
Wed 08:38:35 PM 28.9352 -82.4076 25° Northeast  Level FlightAware Approximate
Wed 08:39:35 PM 29.0091 -82.3674 26° Northeast  Level FlightAware Approximate
Wed 08:40:35 PM 29.0826 -82.3261 26° Northeast  Level FlightAware Approximate
Wed 08:41:35 PM 29.1561 -82.2847 26° Northeast  Level FlightAware Approximate
Wed 08:42:35 PM 29.2296 -82.2432 26° Northeast  Level FlightAware Approximate
Wed 08:43:35 PM 29.3031 -82.2017 26° Northeast  Level FlightAware Approximate
Wed 08:44:35 PM 29.3765 -82.1601 26° Northeast  Level FlightAware Approximate
Wed 08:45:35 PM 29.4500 -82.1185 26° Northeast  Level FlightAware Approximate
Wed 08:46:35 PM 29.5234 -82.0768 26° Northeast  Level FlightAware Approximate
Wed 08:47:35 PM 29.5968 -82.0350 27° Northeast  Level FlightAware Approximate
Wed 08:48:35 PM 29.6698 -81.9922 27° Northeast  Level FlightAware Approximate
Wed 08:49:35 PM 29.7428 -81.9494 27° Northeast  Level FlightAware Approximate
Wed 08:50:35 PM 29.8157 -81.9065 27° Northeast  Level FlightAware Approximate
Wed 08:51:35 PM 29.8887 -81.8635 27° Northeast  Level FlightAware Approximate
Wed 08:52:35 PM 29.9616 -81.8204 27° Northeast  Level FlightAware Approximate
Wed 08:53:35 PM 30.0345 -81.7774 27° Northeast  Level FlightAware Approximate
Wed 08:54:35 PM 30.1074 -81.7342 27° Northeast  Level FlightAware Approximate
Wed 08:55:35 PM 30.1803 -81.6909 27° Northeast  Level FlightAware Approximate
Wed 08:56:35 PM 30.2532 -81.6477 27° Northeast  Level FlightAware Approximate
Wed 08:57:35 PM 30.3260 -81.6043 94° East  Level FlightAware Approximate
Wed 08:58:35 PM 30.3210 -81.5124 21° North  Level FlightAware Approximate
Wed 08:59:35 PM 30.3964 -81.4791 26° Northeast  Level FlightAware Approximate
Wed 09:00:35 PM 30.4700 -81.4375 26° Northeast  Level FlightAware Approximate
Wed 09:01:35 PM 30.5437 -81.3958 26° Northeast  Level FlightAware Approximate
Wed 09:02:35 PM 30.6173 -81.3541 26° Northeast  Level FlightAware Approximate
Wed 09:03:35 PM 30.6909 -81.3123 26° Northeast  Level FlightAware Approximate
Wed 09:04:35 PM 30.7645 -81.2705 26° Northeast  Level FlightAware Approximate
Wed 09:05:35 PM 30.8381 -81.2286 26° Northeast  Level FlightAware Approximate
Wed 09:06:35 PM 30.9116 -81.1866 26° Northeast  Level FlightAware Approximate
Wed 09:07:35 PM 30.9852 -81.1445 26° Northeast  Level FlightAware Approximate
Wed 09:08:35 PM 31.0587 -81.1024 26° Northeast  Level FlightAware Approximate
Wed 09:09:35 PM 31.1322 -81.0602 26° Northeast  Level FlightAware Approximate
Wed 09:10:35 PM 31.2057 -81.0180 26° Northeast  Level FlightAware Approximate
Wed 09:11:35 PM 31.2792 -80.9757 26° Northeast  Level FlightAware Approximate
Wed 09:12:35 PM 31.3527 -80.9333 26° Northeast  Level FlightAware Approximate
Wed 09:13:35 PM 31.4262 -80.8909 26° Northeast  Level FlightAware Approximate
Wed 09:14:35 PM 31.4996 -80.8484 26° Northeast  Level FlightAware Approximate
Wed 09:15:35 PM 31.5731 -80.8058 26° Northeast  Level FlightAware Approximate
Wed 09:16:35 PM 31.6465 -80.7632 26° Northeast  Level FlightAware Approximate
Wed 09:17:35 PM 31.7199 -80.7205 26° Northeast  Level FlightAware Approximate
Wed 09:18:35 PM 31.7933 -80.6777 26° Northeast  Level FlightAware Approximate
Wed 09:19:35 PM 31.8667 -80.6349 26° Northeast  Level FlightAware Approximate
Wed 09:20:35 PM 31.9401 -80.5920 26° Northeast  Level FlightAware Approximate
Wed 09:21:35 PM 32.0134 -80.5490 26° Northeast  Level FlightAware Approximate
Wed 09:22:35 PM 32.0868 -80.5060 26° Northeast  Level FlightAware Approximate
Wed 09:23:35 PM 32.1601 -80.4628 26° Northeast  Level FlightAware Approximate
Wed 09:24:35 PM 32.2334 -80.4196 27° Northeast  Level FlightAware Approximate
Wed 09:25:35 PM 32.3067 -80.3764 347° North  Level FlightAware Approximate
Wed 09:26:35 PM 32.3857 -80.3984 32° Northeast  Level FlightAware Approximate
Wed 09:27:35 PM 32.4554 -80.3475 32° Northeast  Level FlightAware Approximate
Wed 09:28:35 PM 32.5252 -80.2966 33° Northeast  Level FlightAware Approximate
Wed 09:29:35 PM 32.5927 -80.2438 31° Northeast  Level FlightAware Approximate
Wed 09:30:35 PM 32.6627 -80.1933 35° Northeast  Level FlightAware Approximate
Wed 09:31:35 PM 32.7290 -80.1377 26° Northeast  Level FlightAware Approximate
Wed 09:32:35 PM 32.8004 -80.0956 32° Northeast  Level FlightAware Approximate
Wed 09:33:35 PM 32.8697 -80.0436 32° Northeast  Level FlightAware Approximate
Wed 09:34:35 PM 32.8833 -80.0333 338° Northwest  Level FlightAware Approximate
Wed 09:35:35 PM 32.9595 -80.0692 158° South  Level Estimated
Wed 09:36:35 PM 32.8833 -80.0333 360° North  Level Estimated
Wed 09:37:35 PM 32.8833 -80.0333 338° Northwest  Level FlightAware Approximate
Wed 09:38:35 PM 32.9595 -80.0692 158° South  Level Estimated
Wed 09:39:35 PM 32.8833 -80.0333 338° Northwest  Level FlightAware Approximate
Wed 09:40:35 PM 32.9595 -80.0692 158° South  Level Estimated
Wed 09:41:35 PM 32.8833 -80.0333 338° Northwest  Level FlightAware Approximate
Wed 09:42:35 PM 32.9595 -80.0692 158° South  Level Estimated
Wed 09:43:35 PM 32.8833 -80.0333 338° Northwest  Level FlightAware Approximate
Wed 09:44:35 PM 32.9595 -80.0692 158° South  Level Estimated
Wed 09:45:35 PM 32.8833 -80.0333 338° Northwest  Level FlightAware Approximate
Wed 09:46:35 PM 32.9595 -80.0692 158° South  Level Estimated
Wed 09:47:35 PM 32.8833 -80.0333 338° Northwest  Level FlightAware Approximate
Wed 09:48:35 PM 32.9595 -80.0692 158° South  Level Estimated
Wed 09:49:35 PM 32.8833 -80.0333 338° Northwest  Level FlightAware Approximate
Wed 09:50:35 PM 32.9595 -80.0692 158° South  Level Estimated
Wed 09:51:35 PM 32.8833 -80.0333 338° Northwest  Level FlightAware Approximate
Wed 09:52:35 PM 32.9595 -80.0692 158° South  Level Estimated
Wed 09:53:35 PM 32.8833 -80.0333 158° South  Level FlightAware Approximate

Login

Don't have an account? Register now (free) for customized features, flight alerts, and more!